KMCF/MCF METAR and TAF weather

Enter ICAO airport designator
Station Type Date Time Source
KMCF METAR 2019/10/19 07:51 UTC NOAA

KMCF 190751Z AUTO 16010KT 3SM RA BR BKN003 OVC009 25/23 A2980 RMK AO2 CIG 003V005 SLP094 FZRANO $


Station Type Date Time Source
KMCF Decoded METAR 2019/10/19 07:51 UTC NOAA

Macdill Air Force Base, Fl., FL, United States (KMCF) 27-51N 082-30W 4M
Oct 19, 2019 - 03:51 AM EDT / 2019.10.19 0751 UTC
Wind: from the SSE (160 degrees) at 12 MPH (10 KT):0
Visibility: 3 mile(s):0
Sky conditions: overcast
Weather: rain; mist
Temperature: 77 F (25 C)
Dew Point: 73 F (23 C)
Relative Humidity: 88%
Pressure (altimeter): 29.8 in. Hg (1009 hPa)
ob: KMCF 190751Z AUTO 16010KT 3SM RA BR BKN003 OVC009 25/23 A2980 RMK AO2 CIG 003V005 SLP094 FZRANO
cycle: 8

Station Type Date Time Source
KMCF TAF 2019/10/19 01:49 UTC NOAA

TAF KMCF 190100Z 1901/2007 09012G18KT 4800 -SHRA BKN070 510023 QNH2981INS
TEMPO 1901/1902 19020G25KT 4800 -TSRA BKN010CB OVC017
BECMG 1902/1903 12020KT 8000 -SHRA BKN010 510033 QNH2979INS
TEMPO 1902/1908 21020G30KT 8000 -TSRA BKN010CB OVC017
BECMG 1908/1909 17025KT 9000 -SHRA BKN024 510023 QNH2974INS
BECMG 1911/1912 19015KT 9000 -SHRA BKN024 510023 QNH2977INS
BECMG 1920/1921 22015G20KT 9000 -SHRA BKN024 510023 QNH2975INS
BECMG 1923/1924 23009KT 9000 -SHRA FEW017 510023 QNH2981INS TX28/1920Z TN23/1901Z

Example: see airport list